Time;durP1;ratioP1;P1;durP2;ratioP2;P2;SDS_P1;SDS_P2;PMS_P1;PMS_P2;Temp;Humidity;BMP_temperature;BMP_pressure;BME280_temperature;BME280_humidity;BME280_pressure;Samples;Min_cycle;Max_cycle;Signal;HPM_P1;HPM_P2
2021/12/14 00:01:43;;;;;;;;;;;4.70;99.90;;;;;;5025567;28;19921;-71
2021/12/14 00:04:10;;;;;;;;;;;4.80;99.90;;;;;;5024721;28;20148;-71
2021/12/14 00:06:40;;;;;;;;;;;4.80;99.90;;;;;;5005807;28;19929;-71
2021/12/14 00:09:08;;;;;;;;;;;4.80;99.90;;;;;;5005831;28;19944;-71
2021/12/14 00:11:52;;;;;;;;;;;4.80;99.90;;;;;;5010039;28;19922;-70
2021/12/14 00:15:02;;;;;;;;;;;4.80;99.90;;;;;;5024700;28;20213;-72
2021/12/14 00:17:15;;;;;;;;;;;4.80;99.90;;;;;;5024967;28;19953;-70
2021/12/14 00:19:42;;;;;;;;;;;4.80;99.90;;;;;;5025297;28;19921;-71
2021/12/14 00:22:21;;;;;;;;;;;4.80;99.90;;;;;;5025266;28;19921;-71
2021/12/14 00:24:47;;;;;;;;;;;4.80;99.90;;;;;;5024613;28;19921;-71
2021/12/14 00:27:15;;;;;;;;;;;4.80;99.90;;;;;;5025198;28;19929;-71
2021/12/14 00:29:44;;;;;;;;;;;4.80;99.90;;;;;;5025096;28;19928;-71
2021/12/14 00:32:14;;;;;;;;;;;4.70;99.90;;;;;;5023167;28;19922;-71
2021/12/14 00:34:42;;;;;;;;;;;4.70;99.90;;;;;;5004885;28;19921;-72
2021/12/14 00:37:12;;;;;;;;;;;4.60;99.90;;;;;;5031189;28;19921;-71
2021/12/14 00:39:41;;;;;;;;;;;4.60;99.90;;;;;;5044980;28;19922;-71
2021/12/14 00:42:08;;;;;;;;;;;4.60;99.90;;;;;;5044949;28;19921;-71
2021/12/14 00:44:34;;;;;;;;;;;4.60;99.90;;;;;;5039204;28;19936;-72
2021/12/14 00:47:01;;;;;;;;;;;4.60;99.90;;;;;;5024927;28;19927;-71
2021/12/14 00:49:28;;;;;;;;;;;4.60;99.90;;;;;;5024991;28;19921;-71
2021/12/14 00:51:55;;;;;;;;;;;4.60;99.90;;;;;;5024965;28;19928;-72
2021/12/14 00:54:23;;;;;;;;;;;4.60;99.90;;;;;;5021196;28;19922;-71
2021/12/14 00:56:51;;;;;;;;;;;4.60;99.90;;;;;;5034645;22;19933;-74
2021/12/14 00:59:19;;;;;;;;;;;4.60;99.90;;;;;;5044669;28;19921;-74
2021/12/14 01:01:47;;;;;;;;;;;4.60;99.90;;;;;;5044420;28;20224;-74
2021/12/14 01:04:15;;;;;;;;;;;4.60;99.90;;;;;;5043558;28;19928;-74
2021/12/14 01:06:45;;;;;;;;;;;4.70;99.90;;;;;;5044137;28;19921;-74
2021/12/14 01:09:12;;;;;;;;;;;4.70;99.90;;;;;;5044405;28;19963;-74
2021/12/14 01:11:44;;;;;;;;;;;4.70;99.90;;;;;;5044477;28;19928;-74
2021/12/14 01:14:13;;;;;;;;;;;4.70;99.90;;;;;;5043519;28;20137;-74
2021/12/14 01:16:51;;;;;;;;;;;4.60;99.90;;;;;;5044410;28;19967;-74
2021/12/14 01:19:23;;;;;;;;;;;4.60;99.90;;;;;;5044081;28;19921;-74
2021/12/14 01:22:17;;;;;;;;;;;4.60;99.90;;;;;;5035845;28;20227;-74
2021/12/14 01:27:39;;;;;;;;;;;4.60;99.90;;;;;;5018738;28;19921;-74
2021/12/14 01:30:08;;;;;;;;;;;4.60;99.90;;;;;;5026315;28;19922;-74
2021/12/14 01:32:39;;;;;;;;;;;4.60;99.90;;;;;;5024485;28;20113;-76
2021/12/14 01:35:11;;;;;;;;;;;4.50;99.90;;;;;;5024193;28;19922;-76
2021/12/14 01:37:43;;;;;;;;;;;4.50;99.90;;;;;;5041059;28;19933;-74
2021/12/14 01:40:18;;;;;;;;;;;4.40;99.90;;;;;;5043809;28;20108;-74
2021/12/14 01:42:47;;;;;;;;;;;4.50;99.90;;;;;;5044020;28;19921;-74
2021/12/14 01:45:15;;;;;;;;;;;4.50;99.90;;;;;;5043631;28;19968;-76
2021/12/14 01:47:43;;;;;;;;;;;4.50;99.90;;;;;;5043909;28;19921;-74
2021/12/14 01:50:11;;;;;;;;;;;4.40;99.90;;;;;;5043589;28;19921;-74
2021/12/14 01:52:38;;;;;;;;;;;4.40;99.90;;;;;;5043882;28;19928;-73
2021/12/14 01:55:07;;;;;;;;;;;4.40;99.90;;;;;;5043667;28;19925;-74
2021/12/14 01:57:34;;;;;;;;;;;4.40;99.90;;;;;;5043478;28;19928;-74
2021/12/14 02:00:05;;;;;;;;;;;4.40;99.90;;;;;;5043847;28;19921;-76
2021/12/14 02:02:40;;;;;;;;;;;4.40;99.90;;;;;;5043747;28;19921;-76
2021/12/14 02:05:10;;;;;;;;;;;4.40;99.90;;;;;;5044172;28;19920;-76
2021/12/14 02:07:37;;;;;;;;;;;4.40;99.90;;;;;;5045272;28;19925;-76
2021/12/14 02:10:06;;;;;;;;;;;4.30;99.90;;;;;;5043776;28;19921;-76
2021/12/14 02:12:33;;;;;;;;;;;4.30;99.90;;;;;;5043671;28;19984;-75
2021/12/14 02:15:08;;;;;;;;;;;4.20;99.90;;;;;;5043880;28;19921;-74
2021/12/14 02:17:34;;;;;;;;;;;4.20;99.90;;;;;;5047066;28;19925;-75
2021/12/14 02:20:01;;;;;;;;;;;4.30;99.90;;;;;;5047709;28;19925;-74
2021/12/14 02:22:29;;;;;;;;;;;4.20;99.90;;;;;;5047610;28;19928;-74
2021/12/14 02:24:55;;;;;;;;;;;4.30;99.90;;;;;;5046644;28;19921;-74
2021/12/14 02:27:22;;;;;;;;;;;4.20;99.90;;;;;;5047174;28;19922;-74
2021/12/14 02:29:50;;;;;;;;;;;4.20;99.90;;;;;;5047092;28;19925;-74
2021/12/14 02:32:18;;;;;;;;;;;4.20;99.90;;;;;;5047308;28;19928;-74
2021/12/14 02:34:48;;;;;;;;;;;4.20;99.90;;;;;;5046468;28;19921;-74
2021/12/14 02:37:16;;;;;;;;;;;4.20;99.90;;;;;;5047094;28;19921;-74
2021/12/14 02:40:00;;;;;;;;;;;4.20;99.90;;;;;;5047134;28;19921;-73
2021/12/14 02:42:27;;;;;;;;;;;4.20;99.90;;;;;;5046789;28;20255;-74
2021/12/14 02:44:55;;;;;;;;;;;4.20;99.90;;;;;;5046494;28;20098;-74
2021/12/14 02:47:22;;;;;;;;;;;4.20;99.90;;;;;;5046689;28;19921;-74
2021/12/14 02:49:49;;;;;;;;;;;4.10;99.90;;;;;;5046717;28;19924;-74
2021/12/14 02:52:20;;;;;;;;;;;4.10;99.90;;;;;;5046249;28;19928;-74
2021/12/14 02:54:49;;;;;;;;;;;4.10;99.90;;;;;;5046066;28;20151;-74
2021/12/14 02:57:18;;;;;;;;;;;4.00;99.90;;;;;;5046510;28;20000;-75
2021/12/14 02:59:45;;;;;;;;;;;3.90;99.90;;;;;;5046753;28;19921;-75
2021/12/14 03:02:15;;;;;;;;;;;4.00;99.90;;;;;;5046422;28;20204;-75
2021/12/14 03:05:01;;;;;;;;;;;4.00;99.90;;;;;;5043710;28;19951;-75
2021/12/14 03:07:30;;;;;;;;;;;3.90;99.90;;;;;;5053015;28;19935;-75
2021/12/14 03:10:07;;;;;;;;;;;4.00;99.90;;;;;;5046370;28;19988;-75
2021/12/14 03:12:35;;;;;;;;;;;3.90;99.90;;;;;;5046690;28;19925;-75
2021/12/14 03:15:05;;;;;;;;;;;3.90;99.90;;;;;;5045591;28;19921;-75
2021/12/14 03:17:31;;;;;;;;;;;3.90;99.90;;;;;;5046455;28;19921;-75
2021/12/14 03:20:00;;;;;;;;;;;3.90;99.90;;;;;;5045947;28;19921;-75
2021/12/14 03:22:29;;;;;;;;;;;3.90;99.90;;;;;;5046213;28;19925;-75
2021/12/14 03:24:56;;;;;;;;;;;3.80;99.90;;;;;;5045693;28;19933;-75
2021/12/14 03:27:24;;;;;;;;;;;3.80;99.90;;;;;;5045478;28;20101;-75
2021/12/14 03:29:50;;;;;;;;;;;3.90;99.90;;;;;;5045612;28;19927;-75
2021/12/14 03:32:17;;;;;;;;;;;3.90;99.90;;;;;;5046102;28;19955;-75
2021/12/14 03:34:44;;;;;;;;;;;3.90;99.90;;;;;;5045540;28;19944;-74
2021/12/14 03:37:11;;;;;;;;;;;3.90;99.90;;;;;;5046038;28;19928;-75
2021/12/14 03:39:40;;;;;;;;;;;4.00;99.90;;;;;;5046107;28;19921;-75
2021/12/14 03:42:08;;;;;;;;;;;3.90;99.90;;;;;;5043807;28;20209;-75
2021/12/14 03:44:37;;;;;;;;;;;4.00;99.90;;;;;;5029395;28;19928;-75
2021/12/14 03:47:07;;;;;;;;;;;3.80;99.90;;;;;;5045636;28;19928;-74
2021/12/14 03:49:34;;;;;;;;;;;3.90;99.90;;;;;;5045991;28;20108;-74
2021/12/14 03:52:01;;;;;;;;;;;3.80;99.90;;;;;;5046051;28;20112;-75
2021/12/14 03:54:28;;;;;;;;;;;3.90;99.90;;;;;;5045202;28;19921;-75
2021/12/14 03:56:56;;;;;;;;;;;3.90;99.90;;;;;;5045671;28;19927;-75
2021/12/14 03:59:25;;;;;;;;;;;3.90;99.90;;;;;;5045780;28;19922;-75
2021/12/14 04:01:53;;;;;;;;;;;3.90;99.90;;;;;;5045784;28;19921;-75
2021/12/14 04:04:25;;;;;;;;;;;3.90;99.90;;;;;;5041960;28;19936;-74
2021/12/14 04:06:54;;;;;;;;;;;3.90;99.90;;;;;;5045303;28;19927;-75
2021/12/14 04:09:22;;;;;;;;;;;3.80;99.90;;;;;;5045614;28;19928;-75
2021/12/14 04:11:49;;;;;;;;;;;3.70;99.90;;;;;;5045406;28;19924;-75
2021/12/14 04:14:16;;;;;;;;;;;3.70;99.90;;;;;;5044871;28;19921;-75
2021/12/14 04:16:43;;;;;;;;;;;3.70;99.90;;;;;;5045405;28;19921;-75
2021/12/14 04:19:12;;;;;;;;;;;3.60;99.90;;;;;;5045237;28;19928;-75
2021/12/14 04:21:44;;;;;;;;;;;3.50;99.90;;;;;;5045454;28;19956;-74
2021/12/14 04:24:11;;;;;;;;;;;3.50;99.90;;;;;;5044786;28;19929;-74
2021/12/14 04:26:43;;;;;;;;;;;3.30;99.90;;;;;;5045035;28;19960;-74
2021/12/14 04:29:12;;;;;;;;;;;3.30;99.90;;;;;;5044728;28;20231;-74
2021/12/14 04:31:38;;;;;;;;;;;3.40;99.90;;;;;;5045196;28;19921;-74
2021/12/14 04:34:05;;;;;;;;;;;3.50;99.90;;;;;;5044461;28;19963;-74
2021/12/14 04:36:33;;;;;;;;;;;3.40;99.90;;;;;;5045014;28;19928;-75
2021/12/14 04:39:27;;;;;;;;;;;3.40;99.90;;;;;;5043848;28;19928;-74
2021/12/14 04:52:53;;;;;;;;;;;3.40;99.90;;;;;;5044490;28;19924;-75
2021/12/14 04:55:20;;;;;;;;;;;3.40;99.90;;;;;;5044170;28;19927;-74
2021/12/14 04:57:47;;;;;;;;;;;3.30;99.90;;;;;;5044368;28;20120;-74
2021/12/14 05:00:17;;;;;;;;;;;3.40;99.90;;;;;;5044215;28;20226;-74
2021/12/14 05:02:44;;;;;;;;;;;3.30;99.90;;;;;;5044543;28;19928;-74
2021/12/14 05:05:21;;;;;;;;;;;3.30;99.90;;;;;;5040993;28;19921;-74
2021/12/14 05:09:20;;;;;;;;;;;3.30;99.90;;;;;;5044053;28;20115;-74
2021/12/14 05:10:52;;;;;;;;;;;3.20;99.90;;;;;;5037369;28;20201;-74
2021/12/14 05:13:22;;;;;;;;;;;3.20;99.90;;;;;;5024732;28;19917;-74
2021/12/14 05:15:49;;;;;;;;;;;3.20;99.90;;;;;;5023947;28;19928;-74
2021/12/14 05:18:16;;;;;;;;;;;3.20;99.90;;;;;;5027318;28;20235;-74
2021/12/14 05:20:43;;;;;;;;;;;3.30;99.90;;;;;;5024092;28;19928;-74
2021/12/14 05:23:13;;;;;;;;;;;3.30;99.90;;;;;;5024351;28;20225;-75
2021/12/14 05:25:39;;;;;;;;;;;3.40;99.90;;;;;;5023768;28;19921;-74
2021/12/14 05:28:08;;;;;;;;;;;3.30;99.90;;;;;;5024035;28;19921;-74
2021/12/14 05:30:37;;;;;;;;;;;3.30;99.90;;;;;;5024323;28;19953;-75
2021/12/14 05:33:06;;;;;;;;;;;3.30;99.90;;;;;;5024355;28;19984;-75
2021/12/14 05:35:32;;;;;;;;;;;3.30;99.90;;;;;;5023735;28;19929;-75
2021/12/14 05:38:01;;;;;;;;;;;3.30;99.90;;;;;;5024282;28;19928;-75
2021/12/14 05:40:44;;;;;;;;;;;3.30;99.90;;;;;;5024322;28;19921;-75
2021/12/14 05:43:11;;;;;;;;;;;3.30;99.90;;;;;;5030235;28;20255;-74
2021/12/14 05:45:39;;;;;;;;;;;3.40;99.90;;;;;;5043304;28;19925;-75
2021/12/14 05:48:29;;;;;;;;;;;3.40;99.90;;;;;;5041405;28;19936;-74
2021/12/14 05:51:05;;;;;;;;;;;3.40;99.90;;;;;;5043537;28;19992;-74
2021/12/14 05:53:33;;;;;;;;;;;3.40;99.90;;;;;;5044045;28;20341;-75
2021/12/14 05:56:06;;;;;;;;;;;3.40;99.90;;;;;;5044449;28;19929;-73
2021/12/14 06:01:25;;;;;;;;;;;3.40;99.90;;;;;;5043814;28;19917;-74
2021/12/14 06:03:53;;;;;;;;;;;3.40;99.90;;;;;;5043433;28;19967;-75
2021/12/14 06:06:21;;;;;;;;;;;3.30;99.90;;;;;;5043785;28;19927;-74
2021/12/14 06:08:48;;;;;;;;;;;3.30;99.90;;;;;;5043736;28;19929;-74
2021/12/14 06:11:23;;;;;;;;;;;3.30;99.90;;;;;;5043368;28;20231;-74
2021/12/14 06:13:50;;;;;;;;;;;3.30;99.90;;;;;;5042966;28;19928;-74
2021/12/14 06:16:24;;;;;;;;;;;3.40;99.90;;;;;;5043609;28;20205;-74
2021/12/14 06:18:50;;;;;;;;;;;3.40;99.90;;;;;;5041120;28;20104;-71
2021/12/14 06:21:18;;;;;;;;;;;3.40;99.90;;;;;;5043261;28;19947;-76
2021/12/14 06:23:45;;;;;;;;;;;3.40;99.90;;;;;;5042983;28;19921;-71
2021/12/14 06:26:30;;;;;;;;;;;3.40;99.90;;;;;;5040501;28;19921;-74
2021/12/14 06:29:05;;;;;;;;;;;3.50;99.90;;;;;;5042397;28;20262;-75
2021/12/14 06:31:32;;;;;;;;;;;3.50;99.90;;;;;;5040909;28;19921;-75
2021/12/14 06:34:10;;;;;;;;;;;3.50;99.90;;;;;;5042963;28;19944;-75
2021/12/14 06:36:43;;;;;;;;;;;3.50;99.90;;;;;;5043154;28;19921;-75
2021/12/14 06:39:10;;;;;;;;;;;3.50;99.90;;;;;;5033135;28;19921;-74
2021/12/14 06:41:36;;;;;;;;;;;3.50;99.90;;;;;;5023793;28;19922;-73
2021/12/14 06:44:05;;;;;;;;;;;3.50;99.90;;;;;;5034313;28;19920;-73
2021/12/14 06:46:33;;;;;;;;;;;3.50;99.90;;;;;;5043230;28;19921;-76
2021/12/14 06:49:02;;;;;;;;;;;3.50;99.90;;;;;;5041888;28;19921;-75
2021/12/14 06:51:31;;;;;;;;;;;3.50;99.90;;;;;;5027337;28;19928;-74
2021/12/14 06:53:59;;;;;;;;;;;3.50;99.90;;;;;;5022725;28;19921;-74
2021/12/14 06:56:33;;;;;;;;;;;3.60;99.90;;;;;;5022286;28;19927;-76
2021/12/14 06:59:01;;;;;;;;;;;3.60;99.90;;;;;;5050216;23;20238;-71
2021/12/14 07:01:30;;;;;;;;;;;3.50;99.90;;;;;;5036400;28;19928;-70
2021/12/14 07:03:58;;;;;;;;;;;3.50;99.90;;;;;;5046294;28;19928;-71
2021/12/14 07:06:27;;;;;;;;;;;3.50;99.90;;;;;;5046653;28;19987;-71
2021/12/14 07:08:54;;;;;;;;;;;3.50;99.90;;;;;;5041310;28;19921;-70
2021/12/14 07:11:22;;;;;;;;;;;3.50;99.90;;;;;;5033594;28;19928;-71
2021/12/14 07:13:49;;;;;;;;;;;3.50;99.90;;;;;;5042401;28;19922;-67
2021/12/14 07:16:19;;;;;;;;;;;3.50;99.90;;;;;;5026436;28;19922;-68
2021/12/14 07:18:50;;;;;;;;;;;3.50;99.90;;;;;;5026514;28;19921;-70
2021/12/14 07:21:33;;;;;;;;;;;3.50;99.90;;;;;;5026613;28;19937;-72
2021/12/14 07:23:59;;;;;;;;;;;3.50;99.90;;;;;;5026278;28;19925;-71
2021/12/14 07:26:26;;;;;;;;;;;3.50;99.90;;;;;;5025970;28;20213;-71
2021/12/14 07:28:58;;;;;;;;;;;3.60;99.90;;;;;;5025993;28;19928;-71
2021/12/14 07:31:25;;;;;;;;;;;3.60;99.90;;;;;;5026391;28;19928;-72
2021/12/14 07:33:55;;;;;;;;;;;3.60;99.90;;;;;;5044237;28;19921;-71
2021/12/14 07:36:23;;;;;;;;;;;3.60;99.90;;;;;;5046096;28;19928;-71
2021/12/14 07:38:50;;;;;;;;;;;3.60;99.90;;;;;;5045806;28;19921;-71
2021/12/14 07:41:21;;;;;;;;;;;3.70;99.90;;;;;;5045790;28;20235;-70
2021/12/14 07:43:50;;;;;;;;;;;3.70;99.90;;;;;;5045508;28;19928;-72
2021/12/14 07:46:19;;;;;;;;;;;3.70;99.90;;;;;;5046013;28;19928;-72
2021/12/14 07:48:47;;;;;;;;;;;3.70;99.90;;;;;;5045943;28;19992;-71
2021/12/14 07:51:16;;;;;;;;;;;3.80;99.90;;;;;;5046101;28;20180;-72
2021/12/14 07:53:46;;;;;;;;;;;3.80;99.90;;;;;;5045267;28;19921;-71
2021/12/14 07:56:22;;;;;;;;;;;3.90;99.90;;;;;;5045619;28;19929;-71
2021/12/14 07:58:48;;;;;;;;;;;3.90;99.90;;;;;;5045550;28;19921;-71
2021/12/14 08:01:15;;;;;;;;;;;3.90;99.90;;;;;;5045944;28;19968;-71
2021/12/14 08:03:42;;;;;;;;;;;3.90;99.90;;;;;;5045543;28;19921;-74
2021/12/14 08:06:09;;;;;;;;;;;3.90;99.90;;;;;;5045482;28;19921;-72
2021/12/14 08:08:53;;;;;;;;;;;3.90;99.90;;;;;;5041762;28;19921;-71
2021/12/14 08:11:46;;;;;;;;;;;4.00;99.90;;;;;;5025876;28;19921;-71
2021/12/14 08:14:15;;;;;;;;;;;3.80;99.90;;;;;;5025011;28;19960;-71
2021/12/14 08:16:43;;;;;;;;;;;3.80;99.90;;;;;;5025783;28;19922;-71
2021/12/14 08:19:13;;;;;;;;;;;3.90;99.90;;;;;;5023869;28;19922;-72
2021/12/14 08:21:42;;;;;;;;;;;3.90;99.90;;;;;;5024985;28;19928;-71
2021/12/14 08:24:10;;;;;;;;;;;4.00;99.90;;;;;;5033489;28;19925;-72
2021/12/14 08:26:40;;;;;;;;;;;4.00;99.90;;;;;;5045155;28;19921;-71
2021/12/14 08:29:07;;;;;;;;;;;4.00;99.90;;;;;;5036904;28;19921;-71
2021/12/14 08:31:35;;;;;;;;;;;4.00;99.90;;;;;;5024971;28;19928;-71
2021/12/14 08:34:03;;;;;;;;;;;4.00;99.90;;;;;;5033723;28;19925;-72
2021/12/14 08:36:34;;;;;;;;;;;4.00;99.90;;;;;;5045025;28;20099;-72
2021/12/14 08:39:02;;;;;;;;;;;3.90;99.90;;;;;;5045097;28;19921;-72
2021/12/14 08:41:30;;;;;;;;;;;3.90;99.90;;;;;;5044744;28;20247;-71
2021/12/14 08:43:57;;;;;;;;;;;3.90;99.90;;;;;;5044798;28;19921;-72
2021/12/14 08:46:26;;;;;;;;;;;3.90;99.90;;;;;;5044678;28;19944;-71
2021/12/14 08:48:54;;;;;;;;;;;3.80;99.90;;;;;;5044024;28;19928;-73
2021/12/14 08:51:23;;;;;;;;;;;3.90;99.90;;;;;;5043367;28;19984;-72
2021/12/14 08:53:52;;;;;;;;;;;3.90;99.90;;;;;;5043718;28;19943;-71
2021/12/14 08:56:43;;;;;;;;;;;3.90;99.90;;;;;;5031113;28;19924;-72
2021/12/14 08:59:11;;;;;;;;;;;3.90;99.90;;;;;;5042566;28;19952;-72
2021/12/14 09:01:40;;;;;;;;;;;3.90;99.90;;;;;;5043633;28;19959;-72
2021/12/14 09:04:08;;;;;;;;;;;4.00;99.90;;;;;;5043278;28;20173;-71
2021/12/14 09:06:36;;;;;;;;;;;4.00;99.90;;;;;;5029015;28;19921;-72
2021/12/14 09:09:06;;;;;;;;;;;4.00;99.90;;;;;;5025793;28;19921;-72
2021/12/14 09:11:35;;;;;;;;;;;4.00;99.90;;;;;;5044616;28;19988;-71
2021/12/14 09:14:02;;;;;;;;;;;4.00;99.90;;;;;;5044147;28;19928;-72
2021/12/14 09:16:32;;;;;;;;;;;4.10;99.90;;;;;;5044022;28;19920;-73
2021/12/14 09:19:02;;;;;;;;;;;4.10;99.90;;;;;;5042987;28;19928;-71
2021/12/14 09:21:31;;;;;;;;;;;4.10;99.90;;;;;;5027379;28;19922;-72
2021/12/14 09:23:59;;;;;;;;;;;4.10;99.90;;;;;;5023868;28;19926;-72
2021/12/14 09:26:27;;;;;;;;;;;4.10;99.90;;;;;;5023699;28;19928;-73
2021/12/14 09:28:54;;;;;;;;;;;4.20;99.90;;;;;;5026693;28;19928;-73
2021/12/14 09:31:24;;;;;;;;;;;4.20;99.90;;;;;;5024057;28;19925;-72
2021/12/14 09:33:53;;;;;;;;;;;4.30;99.90;;;;;;5023499;28;19928;-71
2021/12/14 09:36:19;;;;;;;;;;;4.30;99.90;;;;;;5030208;28;19975;-72
2021/12/14 09:38:55;;;;;;;;;;;4.30;99.90;;;;;;5043309;28;19929;-73
2021/12/14 09:41:23;;;;;;;;;;;4.20;99.90;;;;;;5038709;28;19982;-73
2021/12/14 09:43:50;;;;;;;;;;;4.20;99.90;;;;;;5043385;28;19921;-72
2021/12/14 09:46:18;;;;;;;;;;;4.20;99.90;;;;;;5043739;28;19925;-73
2021/12/14 09:48:46;;;;;;;;;;;4.20;99.90;;;;;;5040123;28;19928;-72
2021/12/14 09:51:16;;;;;;;;;;;4.30;99.90;;;;;;5042435;28;19921;-73
2021/12/14 09:53:44;;;;;;;;;;;4.30;99.90;;;;;;5043501;28;19921;-73
2021/12/14 09:56:13;;;;;;;;;;;4.30;99.90;;;;;;5043451;28;19981;-73
2021/12/14 09:58:41;;;;;;;;;;;4.30;99.90;;;;;;5042344;28;19960;-72
2021/12/14 10:01:10;;;;;;;;;;;4.30;99.90;;;;;;5042845;28;19921;-72
2021/12/14 10:03:37;;;;;;;;;;;4.30;99.90;;;;;;5039656;28;20117;-73
2021/12/14 10:06:06;;;;;;;;;;;4.30;99.90;;;;;;5022197;28;19944;-71
2021/12/14 10:08:35;;;;;;;;;;;4.40;99.90;;;;;;5023351;28;20000;-73
2021/12/14 10:11:07;;;;;;;;;;;4.40;99.90;;;;;;5023166;28;20223;-71
2021/12/14 10:13:35;;;;;;;;;;;4.30;99.90;;;;;;5026084;28;19925;-73
2021/12/14 10:16:03;;;;;;;;;;;4.30;99.90;;;;;;5023280;28;19960;-70
2021/12/14 10:18:32;;;;;;;;;;;4.30;99.90;;;;;;5024178;28;19922;-73
2021/12/14 10:21:01;;;;;;;;;;;4.30;99.90;;;;;;5023274;28;19922;-74
2021/12/14 10:23:28;;;;;;;;;;;4.30;99.90;;;;;;5023705;28;19921;-72
2021/12/14 10:25:57;;;;;;;;;;;4.40;99.90;;;;;;5023306;28;19921;-73
2021/12/14 10:28:24;;;;;;;;;;;4.40;99.90;;;;;;5022344;28;19925;-72
2021/12/14 10:30:56;;;;;;;;;;;4.50;99.90;;;;;;5034435;28;19924;-73
2021/12/14 10:33:23;;;;;;;;;;;4.40;99.90;;;;;;5043008;28;20230;-73
2021/12/14 10:35:53;;;;;;;;;;;4.50;99.90;;;;;;5042906;28;19921;-73
2021/12/14 10:38:26;;;;;;;;;;;4.50;99.90;;;;;;5045051;28;19995;-73
2021/12/14 10:43:42;;;;;;;;;;;4.40;99.90;;;;;;5046468;28;19923;-71
2021/12/14 10:46:10;;;;;;;;;;;4.40;99.90;;;;;;5046854;28;19921;-73
2021/12/14 10:48:38;;;;;;;;;;;4.50;99.90;;;;;;5046197;28;20226;-73
2021/12/14 10:51:06;;;;;;;;;;;4.50;99.90;;;;;;5042642;28;20135;-73
2021/12/14 10:53:33;;;;;;;;;;;4.50;99.90;;;;;;5046407;28;19927;-73
2021/12/14 10:56:03;;;;;;;;;;;4.50;99.90;;;;;;5046620;28;19921;-73
2021/12/14 10:58:30;;;;;;;;;;;4.60;99.90;;;;;;5044912;28;19920;-73
2021/12/14 11:00:59;;;;;;;;;;;4.60;99.90;;;;;;5043146;28;20151;-73
2021/12/14 11:03:27;;;;;;;;;;;4.60;99.90;;;;;;5046528;28;19921;-73
2021/12/14 11:05:57;;;;;;;;;;;4.70;99.90;;;;;;5044469;28;19952;-73
2021/12/14 11:08:45;;;;;;;;;;;4.70;99.90;;;;;;5045103;28;19993;-73
2021/12/14 11:11:12;;;;;;;;;;;4.70;99.90;;;;;;5040357;28;19928;-73
2021/12/14 11:13:41;;;;;;;;;;;4.70;99.90;;;;;;5046106;28;19921;-71
2021/12/14 11:16:16;;;;;;;;;;;4.70;99.90;;;;;;5046267;28;19928;-73
2021/12/14 11:18:45;;;;;;;;;;;4.70;99.90;;;;;;5045690;28;19965;-73
2021/12/14 11:21:14;;;;;;;;;;;4.70;99.90;;;;;;5040293;28;19925;-72
2021/12/14 11:23:42;;;;;;;;;;;4.70;99.90;;;;;;5026047;28;20140;-72
2021/12/14 11:26:11;;;;;;;;;;;4.80;99.90;;;;;;5027979;28;19928;-72
2021/12/14 11:28:41;;;;;;;;;;;4.80;99.90;;;;;;5045300;28;19928;-71
2021/12/14 11:31:12;;;;;;;;;;;4.80;99.90;;;;;;5045158;28;19936;-70
2021/12/14 11:33:42;;;;;;;;;;;4.80;99.90;;;;;;5045095;28;19921;-71
2021/12/14 11:36:15;;;;;;;;;;;4.80;99.90;;;;;;5045006;28;20160;-70
2021/12/14 11:38:43;;;;;;;;;;;4.80;99.90;;;;;;5045185;28;19989;-71
2021/12/14 11:41:30;;;;;;;;;;;4.80;99.90;;;;;;5045314;28;19992;-70
2021/12/14 11:43:59;;;;;;;;;;;4.90;99.90;;;;;;5045692;28;19921;-71
2021/12/14 11:46:30;;;;;;;;;;;4.80;99.90;;;;;;5046012;28;19929;-70
2021/12/14 11:48:58;;;;;;;;;;;4.80;99.90;;;;;;5044722;28;19921;-71
2021/12/14 11:51:26;;;;;;;;;;;4.90;99.90;;;;;;5044111;28;19921;-71
2021/12/14 11:53:54;;;;;;;;;;;5.00;99.90;;;;;;5045591;28;19921;-71
2021/12/14 11:56:22;;;;;;;;;;;5.00;99.90;;;;;;5045822;28;19921;-71
2021/12/14 11:58:51;;;;;;;;;;;5.10;99.90;;;;;;5045159;28;19921;-71
2021/12/14 12:01:19;;;;;;;;;;;5.10;99.90;;;;;;5044277;28;19944;-71
2021/12/14 12:03:51;;;;;;;;;;;5.10;99.90;;;;;;5041964;28;19929;-72
2021/12/14 12:06:43;;;;;;;;;;;5.10;99.90;;;;;;5024682;28;19928;-70
2021/12/14 12:09:31;;;;;;;;;;;5.10;99.90;;;;;;5037801;28;19967;-71
2021/12/14 12:12:00;;;;;;;;;;;5.10;99.90;;;;;;5045109;28;19917;-72
2021/12/14 12:14:28;;;;;;;;;;;5.10;99.90;;;;;;5044660;28;19927;-72
2021/12/14 12:16:56;;;;;;;;;;;5.10;99.90;;;;;;5045083;28;20223;-71
2021/12/14 12:19:25;;;;;;;;;;;5.20;99.90;;;;;;5044829;28;20232;-71
2021/12/14 12:21:52;;;;;;;;;;;5.20;99.90;;;;;;5044891;28;19921;-72
2021/12/14 12:24:36;;;;;;;;;;;5.20;99.90;;;;;;5044981;28;19921;-71
2021/12/14 12:27:17;;;;;;;;;;;5.20;99.90;;;;;;5044933;28;19982;-71
2021/12/14 12:29:43;;;;;;;;;;;5.20;99.90;;;;;;5043187;28;19996;-71
2021/12/14 12:32:19;;;;;;;;;;;5.30;99.90;;;;;;5044570;28;20236;-71
2021/12/14 12:34:50;;;;;;;;;;;5.30;99.90;;;;;;5044401;28;19929;-71
2021/12/14 12:37:18;;;;;;;;;;;5.30;99.90;;;;;;5044665;28;19928;-71
2021/12/14 12:39:48;;;;;;;;;;;5.40;99.90;;;;;;5044491;28;19984;-71
2021/12/14 12:42:16;;;;;;;;;;;5.30;99.90;;;;;;5044692;28;19921;-71
2021/12/14 12:44:43;;;;;;;;;;;5.30;99.90;;;;;;5044087;28;19980;-71
2021/12/14 12:47:13;;;;;;;;;;;5.30;99.90;;;;;;5044520;28;20200;-71
2021/12/14 12:49:41;;;;;;;;;;;5.30;99.90;;;;;;5043930;28;20248;-71
2021/12/14 12:52:12;;;;;;;;;;;5.40;99.90;;;;;;5043824;28;19927;-72
2021/12/14 12:54:41;;;;;;;;;;;5.30;99.90;;;;;;5038538;28;20112;-71
2021/12/14 12:57:28;;;;;;;;;;;5.30;99.90;;;;;;5041844;28;20181;-70
2021/12/14 12:59:56;;;;;;;;;;;5.30;99.90;;;;;;5043168;28;19920;-71
2021/12/14 13:02:24;;;;;;;;;;;5.30;99.90;;;;;;5044117;28;19925;-70
2021/12/14 13:04:52;;;;;;;;;;;5.30;99.90;;;;;;5043303;28;20256;-71
2021/12/14 13:07:30;;;;;;;;;;;5.30;99.90;;;;;;5041986;28;20153;-72
2021/12/14 13:10:14;;;;;;;;;;;5.20;99.90;;;;;;5042906;28;20172;-72
2021/12/14 13:12:43;;;;;;;;;;;5.20;99.90;;;;;;5043487;28;19921;-72
2021/12/14 13:15:28;;;;;;;;;;;5.20;99.90;;;;;;5043181;28;19928;-72
2021/12/14 13:18:10;;;;;;;;;;;5.20;99.90;;;;;;5044089;28;19928;-72
2021/12/14 13:20:36;;;;;;;;;;;5.20;99.90;;;;;;5041264;28;19988;-71
2021/12/14 13:23:04;;;;;;;;;;;5.20;99.90;;;;;;5044088;28;19921;-72
2021/12/14 13:25:35;;;;;;;;;;;5.20;99.90;;;;;;5040584;28;20120;-72
2021/12/14 13:28:02;;;;;;;;;;;5.20;99.90;;;;;;5043845;28;19927;-71
2021/12/14 13:30:29;;;;;;;;;;;5.20;99.90;;;;;;5043590;28;19929;-72
2021/12/14 13:32:56;;;;;;;;;;;5.20;99.90;;;;;;5043594;28;19921;-71
2021/12/14 13:35:25;;;;;;;;;;;5.20;99.90;;;;;;5043207;28;19928;-71
2021/12/14 13:38:00;;;;;;;;;;;5.20;99.90;;;;;;5043440;28;19925;-71
2021/12/14 13:40:30;;;;;;;;;;;5.10;99.90;;;;;;5051917;23;20231;-74
2021/12/14 13:43:00;;;;;;;;;;;5.10;99.90;;;;;;5051806;28;20123;-73
2021/12/14 13:45:28;;;;;;;;;;;5.10;99.90;;;;;;5062106;28;19928;-74
2021/12/14 13:47:55;;;;;;;;;;;5.10;99.90;;;;;;5063455;28;19928;-73
2021/12/14 13:50:23;;;;;;;;;;;5.10;99.90;;;;;;5048143;28;20005;-72
2021/12/14 13:52:51;;;;;;;;;;;5.10;99.90;;;;;;5051775;28;19988;-73
2021/12/14 13:55:20;;;;;;;;;;;5.10;99.90;;;;;;5063198;28;19921;-74
2021/12/14 13:57:50;;;;;;;;;;;5.10;99.90;;;;;;5063424;28;20200;-73
2021/12/14 14:00:18;;;;;;;;;;;5.10;99.90;;;;;;5063089;28;19920;-73
2021/12/14 14:02:45;;;;;;;;;;;5.20;99.90;;;;;;5062300;28;20111;-73
2021/12/14 14:05:12;;;;;;;;;;;5.20;99.90;;;;;;5042826;28;20165;-71
2021/12/14 14:07:38;;;;;;;;;;;5.20;99.90;;;;;;5043405;28;19927;-73
2021/12/14 14:10:06;;;;;;;;;;;5.20;99.90;;;;;;5043331;28;19925;-73
2021/12/14 14:12:42;;;;;;;;;;;5.20;99.90;;;;;;5046811;28;19959;-74
2021/12/14 14:15:15;;;;;;;;;;;5.20;99.90;;;;;;5047425;28;19980;-73
2021/12/14 14:17:47;;;;;;;;;;;5.20;99.90;;;;;;5047262;28;19921;-73
2021/12/14 14:20:15;;;;;;;;;;;5.10;99.90;;;;;;5047291;28;20119;-73
2021/12/14 14:22:42;;;;;;;;;;;5.20;99.90;;;;;;5046904;28;19935;-74
2021/12/14 14:25:11;;;;;;;;;;;5.20;99.90;;;;;;5046636;28;19921;-70
2021/12/14 14:27:39;;;;;;;;;;;5.20;99.90;;;;;;5046801;28;19928;-70
2021/12/14 14:30:28;;;;;;;;;;;5.20;99.90;;;;;;5046723;28;20223;-73
2021/12/14 14:33:09;;;;;;;;;;;5.20;99.90;;;;;;5047002;28;19921;-71
2021/12/14 14:35:40;;;;;;;;;;;5.20;99.90;;;;;;5063160;28;19920;-73
2021/12/14 14:38:21;;;;;;;;;;;5.20;99.90;;;;;;5066662;28;20227;-73
2021/12/14 14:40:48;;;;;;;;;;;5.10;99.90;;;;;;5066269;28;19920;-73
2021/12/14 14:43:15;;;;;;;;;;;5.10;99.90;;;;;;5066748;28;20092;-74
2021/12/14 14:45:43;;;;;;;;;;;5.20;99.90;;;;;;5066131;28;19928;-74
2021/12/14 14:48:20;;;;;;;;;;;5.20;99.90;;;;;;5066071;28;19921;-72
2021/12/14 14:50:46;;;;;;;;;;;5.20;99.90;;;;;;5066335;28;20266;-74
2021/12/14 14:53:15;;;;;;;;;;;5.20;99.90;;;;;;5062847;28;20230;-74
2021/12/14 14:55:45;;;;;;;;;;;5.20;99.90;;;;;;5065245;28;19920;-72
2021/12/14 14:58:15;;;;;;;;;;;5.20;99.90;;;;;;5066293;28;19963;-73
2021/12/14 15:00:50;;;;;;;;;;;5.20;99.90;;;;;;5066379;28;19920;-72
2021/12/14 15:03:21;;;;;;;;;;;5.20;99.90;;;;;;5057160;28;19921;-73
2021/12/14 15:05:51;;;;;;;;;;;5.30;99.90;;;;;;5065952;28;20111;-72
2021/12/14 15:08:23;;;;;;;;;;;5.30;99.90;;;;;;5066484;28;19921;-73